Time;durP1;ratioP1;P1;durP2;ratioP2;P2;SDS_P1;SDS_P2;PMS_P1;PMS_P2;Temp;Humidity;BMP_temperature;BMP_pressure;BME280_temperature;BME280_humidity;BME280_pressure;Samples;Min_cycle;Max_cycle;Signal;HPM_P1;HPM_P2
2022/06/20 00:01:37;;;;;;;0.20;0.20;;;14.30;72.90;;;;;;4901060;29;20147;-81
2022/06/20 00:04:04;;;;;;;0.47;0.30;;;14.30;72.90;;;;;;4898616;29;20400;-82
2022/06/20 00:06:30;;;;;;;0.70;0.20;;;14.30;73.00;;;;;;4922068;28;20614;-81
2022/06/20 00:08:56;;;;;;;1.20;0.30;;;14.30;73.10;;;;;;4900447;29;20056;-81
2022/06/20 00:11:30;;;;;;;1.90;0.43;;;14.30;73.20;;;;;;4880907;29;20047;-82
2022/06/20 00:13:56;;;;;;;0.20;0.20;;;14.30;73.20;;;;;;4895645;29;20056;-82
2022/06/20 00:16:23;;;;;;;0.25;0.25;;;14.20;73.10;;;;;;4894458;29;20029;-82
2022/06/20 00:18:50;;;;;;;0.20;0.20;;;14.20;73.20;;;;;;4894326;29;20033;-81
2022/06/20 00:21:20;;;;;;;0.22;0.20;;;14.10;73.20;;;;;;4884347;29;20041;-82
2022/06/20 00:23:46;;;;;;;0.20;0.20;;;14.00;73.20;;;;;;4886587;29;20060;-82
2022/06/20 00:26:14;;;;;;;0.10;0.10;;;14.10;73.30;;;;;;4885859;29;20037;-81
2022/06/20 00:28:40;;;;;;;0.20;0.20;;;14.10;73.40;;;;;;4951204;29;20590;-81
2022/06/20 00:31:06;;;;;;;0.52;0.38;;;14.10;73.40;;;;;;4947996;29;20039;-82
2022/06/20 00:33:32;;;;;;;1.00;0.15;;;14.10;73.40;;;;;;4955688;29;20062;-83
2022/06/20 00:35:59;;;;;;;0.20;0.20;;;14.10;73.40;;;;;;4951021;29;20047;-83
2022/06/20 00:38:25;;;;;;;0.45;0.30;;;14.10;73.50;;;;;;4918691;29;20068;-83
2022/06/20 00:40:56;;;;;;;0.47;0.38;;;14.10;73.40;;;;;;4970214;28;20046;-83
2022/06/20 00:43:27;;;;;;;0.98;0.20;;;14.10;73.50;;;;;;4983650;28;20042;-81
2022/06/20 00:45:56;;;;;;;0.70;0.20;;;14.10;73.40;;;;;;4968094;28;20038;-82
2022/06/20 00:48:29;;;;;;;0.63;0.22;;;14.10;73.40;;;;;;4996759;28;20575;-82
2022/06/20 00:51:01;;;;;;;0.90;0.30;;;14.10;73.40;;;;;;5000477;28;20425;-82
2022/06/20 00:53:33;;;;;;;0.20;0.20;;;14.10;73.40;;;;;;4987946;28;20049;-83
2022/06/20 00:56:09;;;;;;;0.30;0.20;;;14.10;73.40;;;;;;5002226;28;20046;-83
2022/06/20 00:58:44;;;;;;;0.40;0.20;;;14.10;73.40;;;;;;4975870;28;20089;-83
2022/06/20 01:01:31;;;;;;;0.20;0.20;;;14.10;73.40;;;;;;4977563;28;20038;-82
2022/06/20 01:04:07;;;;;;;0.13;0.13;;;14.10;73.50;;;;;;4975064;28;20722;-82
2022/06/20 01:06:45;;;;;;;0.30;0.20;;;14.10;73.40;;;;;;4984261;28;20034;-82
2022/06/20 01:09:13;;;;;;;0.20;0.20;;;14.00;73.40;;;;;;4963438;28;20143;-81
2022/06/20 01:11:57;;;;;;;0.50;0.30;;;14.10;73.40;;;;;;4943952;28;20043;-83
2022/06/20 01:14:38;;;;;;;0.43;0.10;;;14.10;73.50;;;;;;4972579;28;20046;-82
2022/06/20 01:17:28;;;;;;;0.13;0.13;;;14.10;73.50;;;;;;4962449;28;20046;-82
2022/06/20 01:20:04;;;;;;;0.20;0.20;;;13.90;73.40;;;;;;4942772;28;20046;-83
2022/06/20 01:22:49;;;;;;;0.17;0.17;;;14.10;73.60;;;;;;4975399;28;20038;-82
2022/06/20 01:25:38;;;;;;;0.25;0.25;;;14.00;73.50;;;;;;4946316;28;20569;-82
2022/06/20 01:28:10;;;;;;;0.10;0.10;;;14.10;73.60;;;;;;4974916;28;20039;-82
2022/06/20 01:30:42;;;;;;;0.15;0.15;;;14.10;73.60;;;;;;4975720;28;20031;-82
2022/06/20 01:33:11;;;;;;;0.30;0.30;;;14.10;73.60;;;;;;4958213;28;20043;-82
2022/06/20 01:38:16;;;;;;;0.10;0.10;;;14.10;73.70;;;;;;4973142;28;20211;-82
2022/06/20 01:42:18;;;;;;;0.25;0.10;;;14.10;73.70;;;;;;5007927;28;20046;-82
2022/06/20 01:43:33;;;;;;;0.10;0.10;;;14.20;73.70;;;;;;4989165;28;20064;-82
2022/06/20 01:46:00;;;;;;;0.47;0.20;;;14.10;73.70;;;;;;4973960;28;20042;-82
2022/06/20 01:48:30;;;;;;;0.40;0.17;;;14.00;73.60;;;;;;4986675;28;20073;-82
2022/06/20 01:50:57;;;;;;;0.38;0.30;;;14.10;73.70;;;;;;4940961;28;20430;-82
2022/06/20 01:53:33;;;;;;;0.20;0.20;;;14.00;73.70;;;;;;4956654;28;20047;-82
2022/06/20 01:56:05;;;;;;;0.28;0.28;;;14.00;73.80;;;;;;4956201;28;20155;-82
2022/06/20 01:58:44;;;;;;;0.20;0.20;;;14.00;73.80;;;;;;4975489;28;20043;-81
2022/06/20 02:01:13;;;;;;;0.45;0.30;;;14.00;73.90;;;;;;4948249;29;20097;-82
2022/06/20 02:03:42;;;;;;;0.20;0.20;;;14.00;74.00;;;;;;4927620;29;20043;-82
2022/06/20 02:06:10;;;;;;;0.95;0.25;;;13.90;74.00;;;;;;4923894;29;20063;-82
2022/06/20 02:08:39;;;;;;;0.40;0.30;;;13.90;74.10;;;;;;4939906;29;20122;-82
2022/06/20 02:11:16;;;;;;;0.35;0.17;;;13.90;74.10;;;;;;4953822;29;20050;-81
2022/06/20 02:13:46;;;;;;;0.20;0.15;;;13.90;74.20;;;;;;4913446;29;20539;-82
2022/06/20 02:16:16;;;;;;;0.57;0.30;;;13.80;74.20;;;;;;4940618;29;20137;-82
2022/06/20 02:18:47;;;;;;;0.10;0.10;;;13.80;74.20;;;;;;4927763;28;20398;-82
2022/06/20 02:21:20;;;;;;;0.50;0.22;;;13.70;74.20;;;;;;4934216;28;20164;-82
2022/06/20 02:23:49;;;;;;;0.20;0.20;;;13.80;74.30;;;;;;4952304;28;20042;-82
2022/06/20 02:26:18;;;;;;;0.32;0.20;;;13.80;74.40;;;;;;4929433;29;20040;-81
2022/06/20 02:28:58;;;;;;;0.28;0.28;;;13.80;74.50;;;;;;4888461;29;20049;-82
2022/06/20 02:31:25;;;;;;;0.20;0.20;;;13.80;74.60;;;;;;4907858;29;20044;-81
2022/06/20 02:33:54;;;;;;;0.20;0.20;;;13.80;74.60;;;;;;4908906;29;20046;-81
2022/06/20 02:36:20;;;;;;;0.20;0.20;;;13.80;74.60;;;;;;4909307;29;20138;-81
2022/06/20 02:38:47;;;;;;;0.20;0.20;;;13.70;74.60;;;;;;4893275;29;20402;-82
2022/06/20 02:41:17;;;;;;;0.22;0.20;;;13.70;74.80;;;;;;4887215;29;20069;-81
2022/06/20 02:43:58;;;;;;;0.20;0.20;;;13.70;74.80;;;;;;4859991;29;20060;-81
2022/06/20 02:46:32;;;;;;;0.13;0.13;;;13.70;74.90;;;;;;4862193;29;20058;-81
2022/06/20 02:49:03;;;;;;;0.20;0.20;;;13.70;74.90;;;;;;4864113;29;20056;-81
2022/06/20 02:51:36;;;;;;;0.20;0.20;;;13.70;74.80;;;;;;4860147;29;20141;-81
2022/06/20 02:54:05;;;;;;;0.20;0.20;;;13.80;74.90;;;;;;4896798;29;20080;-81
2022/06/20 02:56:43;;;;;;;0.40;0.20;;;13.70;74.90;;;;;;4862623;29;20026;-82
2022/06/20 02:59:24;;;;;;;0.20;0.20;;;13.70;74.90;;;;;;4854271;29;20037;-81
2022/06/20 03:02:01;;;;;;;0.20;0.20;;;13.70;74.90;;;;;;4824743;29;20055;-81
2022/06/20 03:04:27;;;;;;;0.30;0.30;;;13.70;74.90;;;;;;4839309;29;20184;-81
2022/06/20 03:07:00;;;;;;;0.20;0.20;;;13.70;75.60;;;;;;4824204;29;20065;-81
2022/06/20 03:09:35;;;;;;;1.05;0.20;;;13.70;75.10;;;;;;4822613;29;20066;-81
2022/06/20 03:12:12;;;;;;;0.68;0.40;;;13.70;75.20;;;;;;4778862;30;20051;-81
2022/06/20 03:14:52;;;;;;;0.20;0.20;;;13.70;75.20;;;;;;4771003;30;20060;-81
2022/06/20 03:17:22;;;;;;;0.60;0.20;;;13.70;75.30;;;;;;4762551;30;20083;-81
2022/06/20 03:19:52;;;;;;;0.40;0.28;;;13.70;75.20;;;;;;4732237;30;20058;-81
2022/06/20 03:22:32;;;;;;;0.28;0.25;;;13.70;75.20;;;;;;4748542;30;20132;-82
2022/06/20 03:24:58;;;;;;;0.20;0.20;;;13.70;75.30;;;;;;4749046;30;20049;-81
2022/06/20 03:27:28;;;;;;;0.43;0.35;;;13.70;75.30;;;;;;4774972;30;20051;-81
2022/06/20 03:30:00;;;;;;;0.38;0.30;;;13.70;75.30;;;;;;4798151;30;20047;-81
2022/06/20 03:32:29;;;;;;;0.35;0.30;;;13.80;75.30;;;;;;4805944;29;20065;-82
2022/06/20 03:34:55;;;;;;;2.40;0.50;;;13.80;75.40;;;;;;4880831;29;20072;-81
2022/06/20 03:37:22;;;;;;;0.65;0.30;;;13.70;75.30;;;;;;4887654;29;20046;-81
2022/06/20 03:39:50;;;;;;;0.20;0.20;;;13.60;75.30;;;;;;4868131;29;20045;-82
2022/06/20 03:42:16;;;;;;;1.13;0.40;;;13.70;75.50;;;;;;4907830;28;20159;-81
2022/06/20 03:44:49;;;;;;;0.98;0.30;;;13.70;75.50;;;;;;4939149;28;20115;-81
2022/06/20 03:47:30;;;;;;;0.28;0.20;;;13.60;75.60;;;;;;4919143;28;20040;-81
2022/06/20 03:50:03;;;;;;;0.52;0.20;;;13.70;75.60;;;;;;4930936;29;20051;-81
2022/06/20 03:52:36;;;;;;;0.28;0.28;;;13.60;75.60;;;;;;4914225;29;20085;-81
2022/06/20 03:55:28;;;;;;;0.28;0.20;;;13.60;75.70;;;;;;4911156;29;20043;-81
2022/06/20 03:58:19;;;;;;;0.10;0.10;;;13.60;75.70;;;;;;4913610;29;20048;-82
2022/06/20 04:01:06;;;;;;;0.63;0.20;;;13.60;75.70;;;;;;4918306;28;20526;-82
2022/06/20 04:03:40;;;;;;;0.20;0.20;;;13.70;75.60;;;;;;4952596;28;20061;-80
2022/06/20 04:06:18;;;;;;;0.20;0.20;;;13.70;75.60;;;;;;4954919;28;20530;-82
2022/06/20 04:11:42;;;;;;;0.20;0.20;;;13.70;75.60;;;;;;4970877;28;20047;-83
2022/06/20 04:14:16;;;;;;;0.20;0.20;;;13.70;75.50;;;;;;4970838;28;20043;-82
2022/06/20 04:16:52;;;;;;;0.70;0.22;;;13.70;75.60;;;;;;4971119;28;20046;-82
2022/06/20 04:19:33;;;;;;;0.10;0.10;;;13.60;75.60;;;;;;4970908;28;20047;-82
2022/06/20 04:22:09;;;;;;;;;;;13.70;75.60;;;;;;4994731;28;20127;-82
2022/06/20 04:24:49;;;;;;;0.10;0.10;;;13.70;75.40;;;;;;4993934;28;20361;-82
2022/06/20 04:27:40;;;;;;;0.32;0.20;;;13.70;75.30;;;;;;4994621;28;20034;-82
2022/06/20 04:30:29;;;;;;;0.20;0.20;;;13.90;75.30;;;;;;4996783;28;20045;-81
2022/06/20 04:33:03;;;;;;;0.20;0.20;;;13.90;75.20;;;;;;4979402;28;20490;-81
2022/06/20 04:35:33;;;;;;;0.20;0.20;;;14.00;75.10;;;;;;4977989;28;20065;-81
2022/06/20 04:38:06;;;;;;;0.10;0.10;;;14.00;75.00;;;;;;4978295;28;20049;-81
2022/06/20 04:41:00;;;;;;;0.10;0.10;;;14.10;74.90;;;;;;4993194;28;20042;-81
2022/06/20 04:43:47;;;;;;;0.20;0.20;;;14.10;74.90;;;;;;5011380;28;20512;-81
2022/06/20 04:46:31;;;;;;;0.30;0.30;;;14.20;74.90;;;;;;4977713;28;20064;-82
2022/06/20 04:48:57;;;;;;;1.67;0.40;;;14.20;74.80;;;;;;4963981;28;20151;-81
2022/06/20 04:51:33;;;;;;;0.60;0.30;;;14.20;74.80;;;;;;5015189;28;20033;-81
2022/06/20 04:53:59;;;;;;;0.40;0.30;;;14.20;74.90;;;;;;4997648;28;20044;-82
2022/06/20 04:56:26;;;;;;;0.10;0.10;;;14.20;74.90;;;;;;5014746;28;20034;-82
2022/06/20 04:59:13;;;;;;;0.55;0.45;;;14.20;75.00;;;;;;5015191;28;20458;-82
2022/06/20 05:01:39;;;;;;;0.85;0.20;;;14.20;75.00;;;;;;4965067;28;20508;-81
2022/06/20 05:04:19;;;;;;;1.10;0.30;;;14.20;75.00;;;;;;4996724;28;20141;-82
2022/06/20 05:06:48;;;;;;;0.88;0.30;;;14.20;75.00;;;;;;4998981;28;20102;-82
2022/06/20 05:09:23;;;;;;;0.40;0.30;;;14.30;75.00;;;;;;4981568;28;20084;-82
2022/06/20 05:11:53;;;;;;;1.05;0.15;;;14.30;74.90;;;;;;4995314;28;20034;-82
2022/06/20 05:14:35;;;;;;;0.20;0.20;;;14.40;75.00;;;;;;4995199;28;20556;-82
2022/06/20 05:17:03;;;;;;;0.47;0.32;;;14.40;74.90;;;;;;5015598;28;20444;-79
2022/06/20 05:19:41;;;;;;;0.52;0.20;;;14.50;74.80;;;;;;4982285;28;20088;-79
2022/06/20 05:22:14;;;;;;;0.35;0.30;;;14.60;74.70;;;;;;4980674;28;20101;-79
2022/06/20 05:24:43;;;;;;;0.98;0.35;;;14.80;74.40;;;;;;5016705;28;20125;-80
2022/06/20 05:27:16;;;;;;;0.38;0.30;;;15.00;74.30;;;;;;5017592;28;20053;-79
2022/06/20 05:29:43;;;;;;;0.30;0.30;;;15.00;74.00;;;;;;4995968;28;20042;-79
2022/06/20 05:32:15;;;;;;;0.50;0.22;;;15.20;73.80;;;;;;4997261;28;20536;-79
2022/06/20 05:34:50;;;;;;;0.32;0.32;;;15.30;73.50;;;;;;4997746;28;20088;-78
2022/06/20 05:37:39;;;;;;;0.43;0.30;;;15.40;73.30;;;;;;4995609;28;20042;-79
2022/06/20 05:40:22;;;;;;;0.28;0.28;;;15.30;73.30;;;;;;4996906;28;20042;-79
2022/06/20 05:42:48;;;;;;;0.50;0.25;;;15.30;73.40;;;;;;5014531;28;20049;-79
2022/06/20 05:45:17;;;;;;;0.65;0.30;;;15.30;73.40;;;;;;5014286;28;20386;-79
2022/06/20 05:47:50;;;;;;;0.28;0.25;;;15.30;73.50;;;;;;4996511;28;20029;-79
2022/06/20 05:50:29;;;;;;;0.38;0.30;;;15.40;73.50;;;;;;4979426;28;20034;-79
2022/06/20 05:52:56;;;;;;;0.40;0.30;;;15.40;73.40;;;;;;4996886;28;20839;-79
2022/06/20 05:55:29;;;;;;;0.90;0.30;;;15.40;73.60;;;;;;4980657;28;20117;-79
2022/06/20 05:57:57;;;;;;;0.20;0.20;;;15.30;73.70;;;;;;4982561;28;20092;-80
2022/06/20 06:00:28;;;;;;;0.30;0.30;;;15.40;73.80;;;;;;4980023;28;20031;-81
2022/06/20 06:03:02;;;;;;;1.20;0.28;;;15.40;73.70;;;;;;5016503;28;20073;-80
2022/06/20 06:05:33;;;;;;;0.47;0.20;;;15.50;74.30;;;;;;4998064;28;20121;-81
2022/06/20 06:08:14;;;;;;;0.45;0.28;;;15.60;73.60;;;;;;4998622;28;20041;-80
2022/06/20 06:10:47;;;;;;;0.30;0.20;;;15.60;73.50;;;;;;4998824;28;20038;-77
2022/06/20 06:13:30;;;;;;;0.28;0.25;;;15.60;73.40;;;;;;5015903;28;20280;-81
2022/06/20 06:19:07;;;;;;;0.45;0.30;;;15.70;73.30;;;;;;4998581;28;20885;-80
2022/06/20 06:21:34;;;;;;;0.50;0.22;;;15.80;73.30;;;;;;4995825;28;20069;-81
2022/06/20 06:24:01;;;;;;;0.20;0.20;;;15.90;73.40;;;;;;4979566;28;20129;-81
2022/06/20 06:26:27;;;;;;;0.85;0.38;;;15.90;73.10;;;;;;4979935;28;20033;-80
2022/06/20 06:28:54;;;;;;;0.80;0.50;;;16.00;73.00;;;;;;4996376;28;20056;-78
2022/06/20 06:31:25;;;;;;;0.40;0.35;;;16.20;72.80;;;;;;4980599;28;20041;-81
2022/06/20 06:33:56;;;;;;;;;;;16.30;72.40;;;;;;4996931;28;20037;-81
2022/06/20 06:36:41;;;;;;;0.30;0.30;;;16.30;72.30;;;;;;4993443;28;19936;-78
2022/06/20 06:39:16;;;;;;;0.77;0.22;;;16.30;72.20;;;;;;5013444;28;20034;-80
2022/06/20 06:41:47;;;;;;;0.70;0.40;;;16.20;72.40;;;;;;4996095;28;20127;-79
2022/06/20 06:44:30;;;;;;;1.08;0.38;;;16.10;72.80;;;;;;4980120;28;20041;-80
2022/06/20 06:46:56;;;;;;;0.40;0.40;;;15.90;73.20;;;;;;4996038;28;20121;-80
2022/06/20 06:49:32;;;;;;;1.02;0.70;;;15.90;73.40;;;;;;4982331;28;20137;-82
2022/06/20 06:52:07;;;;;;;1.90;0.50;;;15.90;73.40;;;;;;4981975;28;20030;-80
2022/06/20 06:55:03;;;;;;;1.20;0.50;;;15.80;73.30;;;;;;4964567;28;20057;-81
2022/06/20 06:57:38;;;;;;;0.82;0.32;;;15.80;73.50;;;;;;4978137;28;20479;-81
2022/06/20 07:00:23;;;;;;;0.47;0.47;;;15.80;73.70;;;;;;4978332;28;20474;-80
2022/06/20 07:02:56;;;;;;;0.73;0.40;;;16.00;73.70;;;;;;5014348;28;20054;-81
2022/06/20 07:05:39;;;;;;;1.20;0.38;;;16.30;73.30;;;;;;4996833;28;20094;-80
2022/06/20 07:08:20;;;;;;;0.73;0.47;;;16.60;72.40;;;;;;5014486;28;20026;-82
2022/06/20 07:10:52;;;;;;;;;;;17.00;71.60;;;;;;5012834;28;20038;-79
2022/06/20 07:13:39;;;;;;;0.30;0.30;;;17.30;70.90;;;;;;4995030;28;20003;-80
2022/06/20 07:16:16;;;;;;;0.95;0.52;;;17.70;70.10;;;;;;5012982;28;20041;-80
2022/06/20 07:18:46;;;;;;;0.50;0.50;;;17.90;69.50;;;;;;5012478;28;20042;-79
2022/06/20 07:21:17;;;;;;;1.15;0.60;;;18.10;69.20;;;;;;4995071;28;20053;-79
2022/06/20 07:23:45;;;;;;;0.47;0.47;;;18.20;68.90;;;;;;4977810;28;20042;-80
2022/06/20 07:26:13;;;;;;;0.80;0.50;;;18.30;68.90;;;;;;4977910;28;20035;-79
2022/06/20 07:28:53;;;;;;;0.63;0.60;;;18.40;69.00;;;;;;4994896;28;20033;-79
2022/06/20 07:31:27;;;;;;;0.55;0.55;;;18.60;68.80;;;;;;4995671;28;20030;-80
2022/06/20 07:34:07;;;;;;;1.13;0.63;;;18.70;68.40;;;;;;4994587;28;20042;-80
2022/06/20 07:36:38;;;;;;;0.50;0.50;;;18.90;68.20;;;;;;4992826;28;20181;-79
2022/06/20 07:39:11;;;;;;;0.40;0.40;;;19.00;68.00;;;;;;4996811;28;20113;-79
2022/06/20 07:41:42;;;;;;;0.65;0.50;;;19.20;68.00;;;;;;5012863;28;20042;-79
2022/06/20 07:44:17;;;;;;;0.50;0.50;;;19.20;67.70;;;;;;4996414;28;20513;-79
2022/06/20 07:46:59;;;;;;;1.05;0.70;;;19.20;67.80;;;;;;5013768;28;20034;-80
2022/06/20 07:49:31;;;;;;;1.40;0.70;;;19.20;68.10;;;;;;4976474;28;20613;-80
2022/06/20 07:52:02;;;;;;;0.77;0.55;;;19.10;68.20;;;;;;5013283;28;20072;-78
2022/06/20 07:54:34;;;;;;;0.77;0.60;;;19.10;68.20;;;;;;4993966;28;20124;-78
2022/06/20 07:57:06;;;;;;;0.75;0.63;;;19.20;68.20;;;;;;5012733;28;20499;-78
2022/06/20 07:59:40;;;;;;;1.17;0.50;;;19.40;68.00;;;;;;5023019;28;20041;-79
2022/06/20 08:02:39;;;;;;;1.58;0.73;;;19.60;67.40;;;;;;5023441;28;20045;-78
2022/06/20 08:05:07;;;;;;;1.10;0.77;;;19.80;66.90;;;;;;5018873;28;20065;-77
2022/06/20 08:07:42;;;;;;;1.10;0.80;;;19.90;66.60;;;;;;5022380;28;20030;-78
2022/06/20 08:10:19;;;;;;;1.15;0.70;;;20.00;66.10;;;;;;5022956;28;20025;-80
2022/06/20 08:12:54;;;;;;;0.68;0.65;;;20.10;66.00;;;;;;5018766;28;20038;-79
2022/06/20 08:15:31;;;;;;;2.53;1.00;;;20.30;65.80;;;;;;5020452;28;20053;-81
2022/06/20 08:17:59;;;;;;;2.72;1.00;;;20.40;65.20;;;;;;5004221;28;20038;-80
2022/06/20 08:20:30;;;;;;;2.47;1.20;;;20.30;64.70;;;;;;5022758;28;20113;-79
2022/06/20 08:23:02;;;;;;;2.38;1.00;;;20.00;64.80;;;;;;4981712;28;20414;-78
2022/06/20 08:25:35;;;;;;;1.08;0.90;;;19.90;64.80;;;;;;5007640;28;20045;-78
2022/06/20 08:28:10;;;;;;;1.17;0.80;;;19.80;65.30;;;;;;5023130;28;20030;-77
2022/06/20 08:30:56;;;;;;;1.10;0.73;;;19.80;65.10;;;;;;5026704;28;20041;-78
2022/06/20 08:33:30;;;;;;;1.63;0.80;;;20.00;64.90;;;;;;5021476;28;20092;-78
2022/06/20 08:36:17;;;;;;;0.82;0.70;;;20.40;64.40;;;;;;4988392;28;20128;-77
2022/06/20 08:39:03;;;;;;;1.52;0.80;;;20.70;63.20;;;;;;5019889;28;20038;-78
2022/06/20 08:41:56;;;;;;;1.05;0.75;;;20.80;62.90;;;;;;5024469;28;20460;-78
2022/06/20 08:44:59;;;;;;;1.35;0.75;;;20.60;63.10;;;;;;5022356;28;20055;-79
2022/06/20 08:47:49;;;;;;;0.77;0.70;;;20.50;63.40;;;;;;5006660;28;20142;-79
2022/06/20 08:50:40;;;;;;;2.20;0.90;;;20.40;63.50;;;;;;5020557;28;20470;-77
2022/06/20 08:53:40;;;;;;;2.53;1.00;;;20.40;63.50;;;;;;5023156;28;20288;-77
2022/06/20 08:56:30;;;;;;;1.63;0.85;;;20.40;63.50;;;;;;5004681;28;20049;-76
2022/06/20 08:59:17;;;;;;;0.60;0.60;;;20.30;63.50;;;;;;5024011;28;20034;-77
2022/06/20 09:02:09;;;;;;;1.05;0.70;;;20.30;63.60;;;;;;5004680;28;20041;-77
2022/06/20 09:04:54;;;;;;;1.65;0.70;;;20.20;63.80;;;;;;5027185;28;20054;-77
2022/06/20 09:07:37;;;;;;;1.42;0.70;;;20.20;63.80;;;;;;5033245;28;20038;-76
2022/06/20 09:10:20;;;;;;;1.15;0.73;;;20.10;64.00;;;;;;5033747;28;20045;-76
2022/06/20 09:13:11;;;;;;;1.73;0.70;;;20.10;64.10;;;;;;5030102;28;20068;-75
2022/06/20 09:16:04;;;;;;;0.68;0.60;;;20.20;64.20;;;;;;5023434;28;20060;-77
2022/06/20 09:18:45;;;;;;;0.75;0.60;;;20.20;63.80;;;;;;5013203;28;20069;-77
2022/06/20 09:21:36;;;;;;;0.68;0.57;;;20.30;63.70;;;;;;5031464;28;20088;-77
2022/06/20 09:24:16;;;;;;;1.60;0.75;;;20.50;63.10;;;;;;4993954;28;20050;-77
2022/06/20 09:26:58;;;;;;;1.20;0.70;;;20.70;62.70;;;;;;5012597;28;20046;-77
2022/06/20 09:29:41;;;;;;;0.98;0.70;;;20.90;62.20;;;;;;4982728;28;20125;-75
2022/06/20 09:32:40;;;;;;;1.13;0.70;;;21.10;61.80;;;;;;5014117;28;20096;-74
2022/06/20 09:35:33;;;;;;;0.63;0.60;;;21.30;61.30;;;;;;5014122;28;20537;-74
2022/06/20 09:38:23;;;;;;;1.60;0.68;;;21.10;61.40;;;;;;4994034;28;20371;-74
2022/06/20 09:41:01;;;;;;;1.55;0.70;;;20.90;61.80;;;;;;5013684;28;20113;-74
2022/06/20 09:43:41;;;;;;;0.98;0.80;;;21.00;62.00;;;;;;5013889;28;20046;-75
2022/06/20 09:46:26;;;;;;;0.85;0.80;;;21.20;61.50;;;;;;4998256;28;20375;-74
2022/06/20 09:49:14;;;;;;;1.05;0.70;;;21.30;61.30;;;;;;5014232;28;20053;-75
2022/06/20 09:51:55;;;;;;;1.40;0.60;;;21.40;60.90;;;;;;5014250;28;20033;-75
2022/06/20 09:54:42;;;;;;;1.83;0.85;;;21.50;60.70;;;;;;5014340;28;20057;-75
2022/06/20 09:57:27;;;;;;;1.25;0.65;;;21.50;60.60;;;;;;5015782;28;20038;-75
2022/06/20 10:00:22;;;;;;;0.60;0.60;;;21.50;60.70;;;;;;4997706;28;20030;-75
2022/06/20 10:03:05;;;;;;;1.23;0.63;;;21.60;60.70;;;;;;5000764;28;20042;-76
2022/06/20 10:05:44;;;;;;;1.00;0.60;;;21.80;60.30;;;;;;4999494;28;20041;-75
2022/06/20 10:08:34;;;;;;;2.63;0.80;;;22.00;60.00;;;;;;5017783;28;20164;-75
2022/06/20 10:11:12;;;;;;;2.05;0.90;;;22.00;59.40;;;;;;5003010;28;20041;-75
2022/06/20 10:13:48;;;;;;;1.80;0.70;;;22.10;59.30;;;;;;5017729;28;20091;-75
2022/06/20 10:16:26;;;;;;;0.95;0.70;;;22.00;59.30;;;;;;5020338;28;20046;-74
2022/06/20 10:19:25;;;;;;;1.02;0.68;;;22.10;59.50;;;;;;5018687;28;20490;-75
2022/06/20 10:22:08;;;;;;;2.60;0.60;;;22.10;59.10;;;;;;5015677;28;20930;-75
2022/06/20 10:25:06;;;;;;;0.73;0.43;;;22.10;58.90;;;;;;5016890;28;20054;-75
2022/06/20 10:27:52;;;;;;;1.35;0.90;;;22.20;58.80;;;;;;5003095;28;20113;-75
2022/06/20 10:30:32;;;;;;;1.02;0.60;;;22.30;58.80;;;;;;5016498;28;20030;-75
2022/06/20 10:33:38;;;;;;;0.43;0.40;;;22.40;58.60;;;;;;5015351;28;20521;-75
2022/06/20 10:36:36;;;;;;;1.67;0.70;;;22.60;58.30;;;;;;5006970;28;20092;-76
2022/06/20 10:39:24;;;;;;;0.85;0.60;;;22.60;57.90;;;;;;5024779;28;20046;-76
2022/06/20 10:42:17;;;;;;;2.00;0.80;;;22.50;58.00;;;;;;5021456;28;20034;-77
2022/06/20 10:45:10;;;;;;;0.77;0.55;;;22.50;57.70;;;;;;5020013;28;20046;-76
2022/06/20 10:48:07;;;;;;;2.00;0.68;;;22.60;57.50;;;;;;5021852;28;20030;-76
2022/06/20 10:51:01;;;;;;;0.50;0.50;;;22.60;57.40;;;;;;5009626;28;20054;-76
2022/06/20 10:53:46;;;;;;;1.38;0.65;;;22.60;57.40;;;;;;5021798;28;20034;-76
2022/06/20 10:56:43;;;;;;;0.73;0.57;;;22.40;57.40;;;;;;5019691;28;20038;-76
2022/06/20 10:59:43;;;;;;;0.63;0.47;;;22.30;57.30;;;;;;5003587;28;20049;-76
2022/06/20 11:02:39;;;;;;;1.02;0.50;;;22.40;57.70;;;;;;5017695;28;20117;-76
2022/06/20 11:05:36;;;;;;;0.73;0.50;;;22.40;57.40;;;;;;5004895;28;20050;-77
2022/06/20 11:08:29;;;;;;;0.60;0.43;;;22.70;56.50;;;;;;5005658;28;20045;-76
2022/06/20 11:11:29;;;;;;;0.82;0.40;;;22.70;56.50;;;;;;5013896;28;20052;-75
2022/06/20 11:14:19;;;;;;;0.63;0.40;;;22.70;56.00;;;;;;5013753;28;20050;-76
2022/06/20 11:17:19;;;;;;;0.70;0.50;;;22.70;55.90;;;;;;5015853;28;20030;-76
2022/06/20 11:20:01;;;;;;;0.45;0.32;;;22.70;55.90;;;;;;5001424;28;20030;-76
2022/06/20 11:22:37;;;;;;;1.50;0.57;;;22.70;55.90;;;;;;5015022;28;20126;-76
2022/06/20 11:25:20;;;;;;;0.35;0.35;;;22.80;55.60;;;;;;4982014;28;20096;-75
2022/06/20 11:28:13;;;;;;;1.15;0.50;;;22.80;55.60;;;;;;5000397;28;20038;-76
2022/06/20 11:31:07;;;;;;;0.50;0.50;;;22.60;55.50;;;;;;5017125;28;20052;-76
2022/06/20 11:34:06;;;;;;;0.80;0.52;;;22.70;55.50;;;;;;4998313;28;20363;-76
2022/06/20 11:36:50;;;;;;;2.13;0.70;;;22.50;55.70;;;;;;5017367;28;20037;-75
2022/06/20 11:39:30;;;;;;;1.15;0.55;;;22.20;56.00;;;;;;5018248;28;20064;-75
2022/06/20 11:42:18;;;;;;;1.35;0.60;;;22.10;56.20;;;;;;5016443;28;20089;-75
2022/06/20 11:45:19;;;;;;;1.15;0.60;;;22.00;56.50;;;;;;4997757;28;20050;-75
2022/06/20 11:48:17;;;;;;;0.93;0.52;;;22.00;56.20;;;;;;5013667;28;20030;-74
2022/06/20 11:51:09;;;;;;;1.70;0.73;;;21.90;56.20;;;;;;4966539;28;20073;-75
2022/06/20 11:54:03;;;;;;;1.45;0.70;;;22.00;55.90;;;;;;4999130;28;20045;-75
2022/06/20 11:56:54;;;;;;;0.50;0.50;;;22.20;55.80;;;;;;5012867;28;20060;-75
2022/06/20 11:59:38;;;;;;;0.63;0.50;;;22.40;55.40;;;;;;4994515;28;20467;-75
2022/06/20 12:02:27;;;;;;;0.75;0.60;;;22.40;55.30;;;;;;4979355;28;20034;-75
2022/06/20 12:05:28;;;;;;;0.52;0.38;;;22.30;55.30;;;;;;5014219;28;20038;-77
2022/06/20 12:08:08;;;;;;;0.40;0.40;;;22.20;55.60;;;;;;5022460;28;20056;-76
2022/06/20 12:10:55;;;;;;;1.10;0.40;;;22.10;55.90;;;;;;5020459;28;20038;-76
2022/06/20 12:13:40;;;;;;;1.00;0.50;;;22.30;55.80;;;;;;4999051;28;20034;-75
2022/06/20 12:16:28;;;;;;;0.63;0.40;;;22.30;55.50;;;;;;4998586;28;20410;-75
2022/06/20 12:24:26;;;;;;;0.63;0.35;;;22.00;55.90;;;;;;5003652;28;20080;-75
2022/06/20 12:26:53;;;;;;;0.47;0.47;;;21.90;55.80;;;;;;5017131;28;20034;-76
2022/06/20 12:29:22;;;;;;;1.35;0.60;;;21.90;56.50;;;;;;5016101;28;20100;-75
2022/06/20 12:31:52;;;;;;;1.27;0.50;;;21.90;55.90;;;;;;5017237;28;20054;-77
2022/06/20 12:34:37;;;;;;;2.13;0.60;;;21.90;55.70;;;;;;5002088;28;20056;-76
2022/06/20 12:37:14;;;;;;;1.58;0.68;;;22.00;55.60;;;;;;5018210;28;20478;-75
2022/06/20 12:39:50;;;;;;;0.50;0.50;;;22.30;55.30;;;;;;5017112;28;20466;-76
2022/06/20 12:42:35;;;;;;;0.80;0.50;;;22.30;55.00;;;;;;5016682;28;20042;-76
2022/06/20 12:45:26;;;;;;;1.88;0.68;;;22.30;55.20;;;;;;5018127;28;20056;-76
2022/06/20 12:48:26;;;;;;;0.55;0.50;;;22.10;55.10;;;;;;5000881;28;20077;-75
2022/06/20 12:51:16;;;;;;;0.90;0.50;;;21.90;55.20;;;;;;5019275;28;20053;-76
2022/06/20 12:54:00;;;;;;;0.65;0.50;;;21.80;55.70;;;;;;5017388;28;20516;-75
2022/06/20 12:56:45;;;;;;;1.30;0.60;;;21.60;55.80;;;;;;5017098;28;20037;-75
2022/06/20 12:59:47;;;;;;;1.10;0.60;;;21.60;55.80;;;;;;4997885;28;20088;-75
2022/06/20 13:02:23;;;;;;;0.40;0.40;;;21.70;55.70;;;;;;5012657;28;20046;-76
2022/06/20 13:05:06;;;;;;;0.55;0.50;;;21.70;55.60;;;;;;4994469;28;20104;-76
2022/06/20 13:07:47;;;;;;;2.15;0.55;;;21.50;55.40;;;;;;4995214;28;20026;-76
2022/06/20 13:10:30;;;;;;;0.68;0.60;;;21.60;55.60;;;;;;4995264;28;20027;-75
2022/06/20 13:13:28;;;;;;;0.65;0.50;;;21.60;55.20;;;;;;4997767;28;20117;-76
2022/06/20 13:16:18;;;;;;;0.98;0.50;;;21.50;55.20;;;;;;5014370;28;20068;-76
2022/06/20 13:19:18;;;;;;;0.80;0.60;;;21.50;55.20;;;;;;5014473;28;20037;-75
2022/06/20 13:21:49;;;;;;;1.27;0.50;;;21.40;55.30;;;;;;4994686;28;20030;-75
2022/06/20 13:24:27;;;;;;;;;;;21.40;55.40;;;;;;5015590;28;20045;-75
2022/06/20 13:27:19;;;;;;;1.08;0.60;;;21.30;55.60;;;;;;4994566;28;19906;-75
2022/06/20 13:30:19;;;;;;;0.35;0.35;;;21.30;55.80;;;;;;4997214;28;20034;-76
2022/06/20 13:32:59;;;;;;;1.70;0.70;;;21.30;55.80;;;;;;4997539;28;20482;-76
2022/06/20 13:35:35;;;;;;;0.65;0.50;;;21.30;55.70;;;;;;5014636;28;20061;-75
2022/06/20 13:38:14;;;;;;;0.65;0.52;;;21.30;55.90;;;;;;4997080;28;20500;-76
2022/06/20 13:41:00;;;;;;;0.60;0.50;;;21.30;55.80;;;;;;4977303;28;20109;-75
2022/06/20 13:43:48;;;;;;;2.28;0.52;;;21.40;55.70;;;;;;4998293;28;20061;-76
2022/06/20 13:46:24;;;;;;;0.80;0.60;;;21.50;55.60;;;;;;5018266;28;20396;-77
2022/06/20 13:49:12;;;;;;;0.55;0.50;;;21.30;55.50;;;;;;5022657;28;20099;-76
2022/06/20 13:51:55;;;;;;;0.70;0.60;;;21.20;55.90;;;;;;4983706;28;20518;-76
2022/06/20 13:54:33;;;;;;;0.57;0.47;;;21.00;56.00;;;;;;5016398;28;20046;-76
2022/06/20 13:57:22;;;;;;;2.47;0.88;;;20.90;56.30;;;;;;5016600;28;20104;-75
2022/06/20 14:00:06;;;;;;;1.05;0.60;;;20.90;56.40;;;;;;5018345;28;20038;-77
2022/06/20 14:02:39;;;;;;;2.10;0.60;;;20.90;56.20;;;;;;5014933;28;20485;-77